Decoded Metar for EHVK (VOLKEL RNLAFB in NETHERLANDS) (IATA:N/A) | Meteo·Mobile Aviation Weather
aviador You're here:

EHVK Decoded Metar

VOLKEL RNLAFB in NETHERLANDS
Report Time2019-01-18 10:55:00
UTC Time2019-01-18 11:14:45
Flight Rules vfr VFR
Wind200° at 05 kt
W.Decomp.*RWY 24: 3.8 kt HW 3.3 kt LCW
W.Rank200° ranks 5
Current wind is below 200° avg. (8.3)
Visibility9999 m
Phenomena:Mist
Clouds:Overcast 280 Hf
Expected CloudBase > 400 ft AGL from Temp-Dew spread
Ceiling28,000 ft
Temp01°C (ISA -14)
Dew Point00°C (93% RH)
AAT-2.8°C
QNH1020 hPa
Density Alt-1,778 ft
Elevation69 ft
Report Wrong Elevation
Raw Report
METAR EHVK 181055Z AUTO 20005KT 150V220 9999 OVC280 01/M00 Q1020
BLU 23003KT 5000 BR NSC BECMG 9999 NSW=

Extra information for EHVK:More info

Metar Taf Metar & Taf Last 4 Metars F.Rules Stats Wind Profile Meteogram Temp Stats Airport Information Weather charts Add Link Nearby VenuesMetar ALERT Operation Metar Decoded Social comments